Flaxcombe, Canada
Current Conditions -  °F | °C
As of 1:00 AM on Monday 24 Nov 2014 (Local Time) from CYKY Reporting Station
Broken Clouds Broken Clouds  
Wind Chill:   Ceiling: 23000
Heat Index: 10°   Visibility: 15mi
Dew Point:   Wind: 6mph
Humidity: 85%   Direction: 300°WNW
Pressure: 29.8"   Gusts: NA
Location:  51.47°N, 109.6°W
Report Text: CYKY 240700Z 30005KT 250V310 15SM SCT040 BKN230 M12/M14 A2980 RMK SC3CI3 SLP138
Loading
Personal Weather Stations






























Interactive Weather Map New forecast layout! Learn more

10-Day Weather Forecast

Advertisements
Track Severe Weather on mobile